createdAt,value
2023-05-22T00:01:42.824Z,7.78
2023-05-22T00:04:10.805Z,7.80
2023-05-22T00:06:37.948Z,7.53
2023-05-22T00:09:04.749Z,8.07
2023-05-22T00:11:31.788Z,7.05
2023-05-22T00:13:58.262Z,7.55
2023-05-22T00:16:24.819Z,7.85
2023-05-22T00:18:51.356Z,7.38
2023-05-22T00:21:18.505Z,6.78
2023-05-22T00:23:45.787Z,7.70
2023-05-22T00:26:19.233Z,7.47
2023-05-22T00:28:46.034Z,6.80
2023-05-22T00:31:12.637Z,7.90
2023-05-22T00:33:39.183Z,7.32
2023-05-22T00:36:06.475Z,7.38
2023-05-22T00:38:35.439Z,6.80
2023-05-22T00:41:02.804Z,7.28
2023-05-22T00:43:29.502Z,7.68
2023-05-22T00:45:56.438Z,7.82
2023-05-22T00:48:23.633Z,8.13
2023-05-22T00:50:51.240Z,6.88
2023-05-22T00:53:21.232Z,7.40
2023-05-22T00:55:48.296Z,7.45
2023-05-22T00:58:17.742Z,6.32
2023-05-22T01:00:45.221Z,7.57
2023-05-22T01:03:12.297Z,7.68
2023-05-22T01:05:40.373Z,7.90
2023-05-22T01:08:08.167Z,8.60
2023-05-22T01:10:37.530Z,8.07
2023-05-22T01:13:23.316Z,7.85
2023-05-22T01:15:57.307Z,7.38
2023-05-22T01:18:42.639Z,8.02
2023-05-22T01:21:31.070Z,6.15
2023-05-22T01:24:33.628Z,7.85
2023-05-22T01:27:25.805Z,7.80
2023-05-22T01:30:29.731Z,7.22
2023-05-22T01:32:58.178Z,7.80
2023-05-22T01:35:26.590Z,8.32
2023-05-22T01:37:55.342Z,8.40
2023-05-22T01:42:48.514Z,8.32
2023-05-22T01:45:15.034Z,8.50
2023-05-22T01:47:41.594Z,8.07
2023-05-22T01:50:08.856Z,7.50
2023-05-22T01:52:52.363Z,7.05
2023-05-22T01:55:29.236Z,7.78
2023-05-22T01:57:59.220Z,7.30
2023-05-22T02:00:27.705Z,8.27
2023-05-22T02:03:06.731Z,8.35
2023-05-22T02:05:37.639Z,9.27
2023-05-22T02:08:04.805Z,8.35
2023-05-22T02:10:33.345Z,7.78
2023-05-22T02:13:00.318Z,8.70
2023-05-22T02:15:29.584Z,6.97
2023-05-22T02:18:03.174Z,7.95
2023-05-22T02:20:29.828Z,8.52
2023-05-22T02:22:56.358Z,7.95
2023-05-22T02:25:22.953Z,7.68
2023-05-22T02:27:52.183Z,9.18
2023-05-22T02:30:18.743Z,7.63
2023-05-22T02:32:45.369Z,7.40
2023-05-22T02:35:11.987Z,9.05
2023-05-22T02:37:38.767Z,9.00
2023-05-22T02:40:06.334Z,7.70
2023-05-22T02:42:33.124Z,7.07
2023-05-22T02:44:59.998Z,6.93
2023-05-22T02:47:27.058Z,7.47
2023-05-22T02:49:53.696Z,8.82
2023-05-22T02:52:20.933Z,7.90
2023-05-22T02:54:47.438Z,9.05
2023-05-22T02:57:13.962Z,8.35
2023-05-22T02:59:40.504Z,8.98
2023-05-22T03:02:07.497Z,8.07
2023-05-22T03:04:34.171Z,6.78
2023-05-22T03:07:01.702Z,8.43
2023-05-22T03:09:28.292Z,6.97
2023-05-22T03:11:54.831Z,8.65
2023-05-22T03:14:21.416Z,8.30
2023-05-22T03:16:47.951Z,8.32
2023-05-22T03:19:15.555Z,8.88
2023-05-22T03:21:45.914Z,7.55
2023-05-22T03:24:14.949Z,7.63
2023-05-22T03:26:44.557Z,8.25
2023-05-22T03:29:11.157Z,9.10
2023-05-22T03:31:37.732Z,6.75
2023-05-22T03:34:05.815Z,7.38
2023-05-22T03:36:35.448Z,8.05
2023-05-22T03:39:02.890Z,6.50
2023-05-22T03:41:29.616Z,9.07
2023-05-22T03:43:57.281Z,9.25
2023-05-22T03:46:23.903Z,8.20
2023-05-22T03:48:50.520Z,8.40
2023-05-22T03:51:19.998Z,8.60
2023-05-22T03:53:47.061Z,7.43
2023-05-22T03:56:13.623Z,7.22
2023-05-22T03:58:40.165Z,7.35
2023-05-22T04:01:06.711Z,7.70
2023-05-22T04:03:33.297Z,8.07
2023-05-22T04:05:59.891Z,8.38
2023-05-22T04:08:26.413Z,6.55
2023-05-22T04:10:54.453Z,7.78
2023-05-22T04:13:21.089Z,8.02
2023-05-22T04:15:47.742Z,8.60
2023-05-22T04:18:14.671Z,8.52
2023-05-22T04:20:42.737Z,8.27
2023-05-22T04:23:09.671Z,8.55
2023-05-22T04:25:36.570Z,8.77
2023-05-22T04:28:04.151Z,8.30
2023-05-22T04:30:34.089Z,7.82
2023-05-22T04:33:01.580Z,6.60
2023-05-22T04:35:29.493Z,6.32
2023-05-22T04:37:57.132Z,5.72
2023-05-22T04:40:23.802Z,7.57
2023-05-22T04:42:54.217Z,7.03
2023-05-22T04:45:25.275Z,7.55
2023-05-22T04:47:53.120Z,7.60
2023-05-22T04:50:20.590Z,6.60
2023-05-22T04:52:47.990Z,6.93
2023-05-22T04:55:15.210Z,6.00
2023-05-22T04:57:44.706Z,7.70
2023-05-22T05:00:13.052Z,8.43
2023-05-22T05:02:39.869Z,7.07
2023-05-22T05:05:06.591Z,7.32
2023-05-22T05:07:36.786Z,7.97
2023-05-22T05:10:03.426Z,8.07
2023-05-22T05:12:29.952Z,8.20
2023-05-22T05:14:56.436Z,7.90
2023-05-22T05:17:23.920Z,7.57
2023-05-22T05:19:50.514Z,8.70
2023-05-22T05:22:17.015Z,7.78
2023-05-22T05:24:43.521Z,8.60
2023-05-22T05:27:11.288Z,9.75
2023-05-22T05:29:37.788Z,9.05
2023-05-22T05:32:04.648Z,9.55
2023-05-22T05:34:31.377Z,8.43
2023-05-22T05:36:57.958Z,8.27
2023-05-22T05:39:24.560Z,10.20
2023-05-22T05:41:51.065Z,8.30
2023-05-22T05:44:17.616Z,8.93
2023-05-22T05:46:44.175Z,8.57
2023-05-22T05:49:11.256Z,8.30
2023-05-22T05:51:38.492Z,9.80
2023-05-22T05:54:05.197Z,10.95
2023-05-22T05:56:31.795Z,11.15
2023-05-22T05:58:58.521Z,12.25
2023-05-22T06:01:26.995Z,10.10
2023-05-22T06:03:53.854Z,10.95
2023-05-22T06:06:20.762Z,9.90
2023-05-22T06:08:47.315Z,10.98
2023-05-22T06:11:13.880Z,11.27
2023-05-22T06:13:40.384Z,12.23
2023-05-22T06:16:07.246Z,13.98
2023-05-22T06:18:36.202Z,13.27
2023-05-22T06:21:02.986Z,12.57
2023-05-22T06:23:29.499Z,13.40
2023-05-22T06:25:56.130Z,12.25
2023-05-22T06:28:22.824Z,14.35
2023-05-22T06:30:49.428Z,12.68
2023-05-22T06:33:16.649Z,14.65
2023-05-22T06:35:43.267Z,15.77
2023-05-22T06:38:10.010Z,14.40
2023-05-22T06:40:36.675Z,16.23
2023-05-22T06:43:03.279Z,15.25
2023-05-22T06:45:29.796Z,15.73
2023-05-22T06:47:56.414Z,15.05
2023-05-22T06:50:22.948Z,13.73
2023-05-22T06:52:49.629Z,14.75
2023-05-22T06:55:17.168Z,14.55
2023-05-22T06:57:43.736Z,14.63
2023-05-22T07:00:12.816Z,16.13
2023-05-22T07:02:40.006Z,15.80
2023-05-22T07:05:07.152Z,17.00
2023-05-22T07:07:33.696Z,15.43
2023-05-22T07:10:00.362Z,16.20
2023-05-22T07:12:27.672Z,17.42
2023-05-22T07:14:54.765Z,17.50
2023-05-22T07:17:21.980Z,19.40
2023-05-22T07:19:48.740Z,19.60
2023-05-22T07:22:15.707Z,19.15
2023-05-22T07:24:43.168Z,20.65
2023-05-22T07:27:11.321Z,22.80
2023-05-22T07:29:38.076Z,22.73
2023-05-22T07:32:04.886Z,21.38
2023-05-22T07:34:34.865Z,18.27
2023-05-22T07:37:07.844Z,20.40
2023-05-22T07:39:34.853Z,20.08
2023-05-22T07:42:02.075Z,20.70
2023-05-22T07:44:28.750Z,18.60
2023-05-22T07:46:55.763Z,20.10
2023-05-22T07:49:23.628Z,19.42
2023-05-22T07:51:50.167Z,20.65
2023-05-22T07:54:18.192Z,19.98
2023-05-22T07:56:46.016Z,20.80
2023-05-22T07:59:12.588Z,21.33
2023-05-22T08:01:39.889Z,21.48
2023-05-22T08:04:06.692Z,23.73
2023-05-22T08:06:35.099Z,22.33
2023-05-22T08:09:02.770Z,20.58
2023-05-22T08:11:29.715Z,20.92
2023-05-22T08:13:56.426Z,21.05
2023-05-22T08:16:23.546Z,21.85
2023-05-22T08:18:50.424Z,20.38
2023-05-22T08:21:17.092Z,22.77
2023-05-22T08:23:43.680Z,21.92
2023-05-22T08:26:10.194Z,20.67
2023-05-22T08:28:37.386Z,20.98
2023-05-22T08:31:04.094Z,22.35
2023-05-22T08:33:30.719Z,19.55
2023-05-22T08:35:57.228Z,19.83
2023-05-22T08:38:26.460Z,20.10
2023-05-22T08:40:55.602Z,22.40
2023-05-22T08:43:22.368Z,22.08
2023-05-22T08:46:09.714Z,22.90
2023-05-22T08:48:38.341Z,22.17
2023-05-22T08:51:05.806Z,22.45
2023-05-22T08:53:36.693Z,23.25
2023-05-22T08:56:05.526Z,24.23
2023-05-22T08:58:34.715Z,23.98
2023-05-22T09:01:02.730Z,29.15
2023-05-22T09:03:33.343Z,26.73
2023-05-22T09:06:01.357Z,23.10
2023-05-22T09:08:29.009Z,23.38
2023-05-22T09:10:56.357Z,21.60
2023-05-22T09:13:28.825Z,29.27
2023-05-22T09:16:00.327Z,24.15
2023-05-22T09:18:28.798Z,28.20
2023-05-22T09:23:25.483Z,29.75
2023-05-22T09:25:55.554Z,28.38
2023-05-22T09:28:25.138Z,28.83
2023-05-22T09:30:53.036Z,22.85
2023-05-22T09:33:20.562Z,20.90
2023-05-22T09:35:47.270Z,20.50
2023-05-22T09:38:14.396Z,20.85
2023-05-22T09:40:42.050Z,19.77
2023-05-22T09:43:09.717Z,23.05
2023-05-22T09:45:36.985Z,20.90
2023-05-22T09:48:04.872Z,21.45
2023-05-22T09:50:32.447Z,20.30
2023-05-22T09:53:05.926Z,23.73
2023-05-22T09:55:33.750Z,23.15
2023-05-22T09:58:04.743Z,25.95
2023-05-22T10:00:34.258Z,26.92
2023-05-22T10:03:12.590Z,25.85
2023-05-22T10:05:46.841Z,26.55
2023-05-22T10:08:38.919Z,23.52
2023-05-22T10:11:06.438Z,24.58
2023-05-22T10:13:36.015Z,29.00
2023-05-22T10:16:04.617Z,29.55
2023-05-22T10:18:31.343Z,24.10
2023-05-22T10:20:58.093Z,21.10
2023-05-22T10:23:24.899Z,23.42
2023-05-22T10:25:53.118Z,22.88
2023-05-22T10:28:27.596Z,20.70
2023-05-22T10:31:05.246Z,19.17
2023-05-22T10:33:42.204Z,20.85
2023-05-22T10:36:14.055Z,25.63
2023-05-22T10:39:05.290Z,21.73
2023-05-22T10:41:31.919Z,20.13
2023-05-22T10:43:58.463Z,18.75
2023-05-22T10:46:25.638Z,19.58
2023-05-22T10:48:54.136Z,17.73
2023-05-22T10:51:24.204Z,16.65
2023-05-22T10:54:05.356Z,17.02
2023-05-22T10:56:37.021Z,16.52
2023-05-22T10:59:05.373Z,18.40
2023-05-22T11:01:37.596Z,16.40
2023-05-22T11:04:04.491Z,17.80
2023-05-22T11:06:39.025Z,15.70
2023-05-22T11:09:26.761Z,17.80
2023-05-22T11:12:27.494Z,15.30
2023-05-22T11:14:59.962Z,16.08
2023-05-22T11:17:29.269Z,17.15
2023-05-22T11:20:00.622Z,17.73
2023-05-22T11:22:37.073Z,18.50
2023-05-22T11:25:07.199Z,15.40
2023-05-22T11:27:34.922Z,16.40
2023-05-22T11:30:01.820Z,16.83
2023-05-22T11:32:29.581Z,16.92
2023-05-22T11:34:57.328Z,17.90
2023-05-22T11:37:24.239Z,16.95
2023-05-22T11:39:58.241Z,17.10
2023-05-22T11:42:25.223Z,16.58
2023-05-22T11:44:52.167Z,19.23
2023-05-22T11:47:18.825Z,17.65
2023-05-22T11:49:46.039Z,17.13
2023-05-22T11:52:12.703Z,18.35
2023-05-22T11:54:39.267Z,18.27
2023-05-22T11:57:07.982Z,18.48
2023-05-22T11:59:34.635Z,18.38
2023-05-22T12:02:01.223Z,19.83
2023-05-22T12:04:28.167Z,22.45
2023-05-22T12:06:55.179Z,24.35
2023-05-22T12:09:21.907Z,17.85
2023-05-22T12:11:49.561Z,21.05
2023-05-22T12:14:16.247Z,21.13
2023-05-22T12:16:44.425Z,19.00
2023-05-22T12:19:12.097Z,23.95
2023-05-22T12:21:39.453Z,20.88
2023-05-22T12:24:06.520Z,23.30
2023-05-22T12:26:33.123Z,21.13
2023-05-22T12:28:59.768Z,18.52
2023-05-22T12:31:26.804Z,23.52
2023-05-22T12:33:57.104Z,19.67
2023-05-22T12:36:38.892Z,20.05
2023-05-22T12:39:16.217Z,22.63
2023-05-22T12:41:44.240Z,20.70
2023-05-22T12:46:38.157Z,17.00
2023-05-22T12:49:04.974Z,17.15
2023-05-22T12:51:32.417Z,15.50
2023-05-22T12:53:59.763Z,17.52
2023-05-22T12:56:26.654Z,16.92
2023-05-22T12:58:53.240Z,19.30
2023-05-22T13:01:20.114Z,17.17
2023-05-22T13:03:46.769Z,20.00
2023-05-22T13:06:13.502Z,17.42
2023-05-22T13:08:40.052Z,19.02
2023-05-22T13:11:06.597Z,16.77
2023-05-22T13:13:33.139Z,15.45
2023-05-22T13:15:59.746Z,16.95
2023-05-22T13:18:26.326Z,16.92
2023-05-22T13:20:53.309Z,19.48
2023-05-22T13:23:19.834Z,14.82
2023-05-22T13:25:46.374Z,16.08
2023-05-22T13:28:12.872Z,15.77
2023-05-22T13:30:40.173Z,14.35
2023-05-22T13:33:07.235Z,17.02
2023-05-22T13:35:33.806Z,13.75
2023-05-22T13:38:00.374Z,16.15
2023-05-22T13:40:26.906Z,14.48
2023-05-22T13:42:53.456Z,14.35
2023-05-22T13:45:20.106Z,15.45
2023-05-22T13:47:46.692Z,15.75
2023-05-22T13:50:13.335Z,15.50
2023-05-22T13:52:40.288Z,14.88
2023-05-22T13:55:09.851Z,15.80
2023-05-22T13:57:38.720Z,16.75
2023-05-22T14:00:06.014Z,18.30
2023-05-22T14:02:32.662Z,17.45
2023-05-22T14:04:59.266Z,17.85
2023-05-22T14:07:25.939Z,19.73
2023-05-22T14:09:52.593Z,18.30
2023-05-22T14:12:19.201Z,18.40
2023-05-22T14:14:45.744Z,18.73
2023-05-22T14:17:12.268Z,18.75
2023-05-22T14:19:39.249Z,17.15
2023-05-22T14:22:05.887Z,19.40
2023-05-22T14:24:32.575Z,19.42
2023-05-22T14:26:59.161Z,20.75
2023-05-22T14:29:25.918Z,18.20
2023-05-22T14:31:55.522Z,20.00
2023-05-22T14:34:22.054Z,17.17
2023-05-22T14:36:48.642Z,18.00
2023-05-22T14:39:15.558Z,20.05
2023-05-22T14:41:42.155Z,20.05
2023-05-22T14:44:09.251Z,19.10
2023-05-22T14:46:35.862Z,23.00
2023-05-22T14:49:02.483Z,20.88
2023-05-22T14:51:29.238Z,21.77
2023-05-22T14:53:55.790Z,23.33
2023-05-22T14:56:22.964Z,23.15
2023-05-22T14:58:49.672Z,21.58
2023-05-22T15:01:16.212Z,22.73
2023-05-22T15:03:43.442Z,24.48
2023-05-22T15:06:10.055Z,23.83
2023-05-22T15:08:36.736Z,23.85
2023-05-22T15:11:03.433Z,23.63
2023-05-22T15:13:30.024Z,24.48
2023-05-22T15:15:58.010Z,24.35
2023-05-22T15:18:26.503Z,23.08
2023-05-22T15:20:53.481Z,23.45
2023-05-22T15:23:20.523Z,21.85
2023-05-22T15:25:48.193Z,24.30
2023-05-22T15:28:14.745Z,22.35
2023-05-22T15:30:43.598Z,22.70
2023-05-22T15:33:10.202Z,21.88
2023-05-22T15:35:36.809Z,22.80
2023-05-22T15:38:03.424Z,21.95
2023-05-22T15:40:30.152Z,21.70
2023-05-22T15:42:59.570Z,23.35
2023-05-22T15:45:26.078Z,23.25
2023-05-22T15:47:53.507Z,23.38
2023-05-22T15:50:20.081Z,19.63
2023-05-22T15:52:46.573Z,18.88
2023-05-22T15:55:13.237Z,18.27
2023-05-22T15:57:39.731Z,17.17
2023-05-22T16:00:06.896Z,17.38
2023-05-22T16:02:33.685Z,15.23
2023-05-22T16:05:00.289Z,15.90
2023-05-22T16:07:27.058Z,15.57
2023-05-22T16:09:54.219Z,14.57
2023-05-22T16:12:20.829Z,13.90
2023-05-22T16:14:47.471Z,12.85
2023-05-22T16:17:14.030Z,13.30
2023-05-22T16:19:40.658Z,11.88
2023-05-22T16:22:07.178Z,11.75
2023-05-22T16:24:33.702Z,13.27
2023-05-22T16:27:00.652Z,12.02
2023-05-22T16:29:27.247Z,13.85
2023-05-22T16:31:53.900Z,14.38
2023-05-22T16:34:20.495Z,13.35
2023-05-22T16:36:47.094Z,17.02
2023-05-22T16:39:15.410Z,16.40
2023-05-22T16:41:41.904Z,9.65
2023-05-22T16:44:08.650Z,7.47
2023-05-22T16:46:35.145Z,6.28
2023-05-22T16:49:01.855Z,7.32
2023-05-22T16:51:28.397Z,7.68
2023-05-22T16:53:54.913Z,6.60
2023-05-22T16:56:21.439Z,6.40
2023-05-22T16:58:47.978Z,4.93
2023-05-22T17:01:14.786Z,4.95
2023-05-22T17:03:41.616Z,4.80
2023-05-22T17:06:09.027Z,4.50
2023-05-22T17:08:35.786Z,4.68
2023-05-22T17:11:02.542Z,4.43
2023-05-22T17:13:29.248Z,4.07
2023-05-22T17:15:56.085Z,4.60
2023-05-22T17:18:22.620Z,4.60
2023-05-22T17:20:50.573Z,4.60
2023-05-22T17:25:46.585Z,4.88
2023-05-22T17:28:14.702Z,5.10
2023-05-22T17:30:42.486Z,5.38
2023-05-22T17:33:09.484Z,5.63
2023-05-22T17:35:36.010Z,5.43
2023-05-22T17:38:02.567Z,6.13
2023-05-22T17:40:40.473Z,5.82
2023-05-22T17:43:11.048Z,6.07
2023-05-22T17:45:37.811Z,6.32
2023-05-22T17:48:04.892Z,5.82
2023-05-22T17:50:31.693Z,7.00
2023-05-22T17:52:58.304Z,6.40
2023-05-22T17:55:24.811Z,7.05
2023-05-22T17:57:51.543Z,6.45
2023-05-22T18:00:18.441Z,5.75
2023-05-22T18:02:45.040Z,7.43
2023-05-22T18:05:11.648Z,6.45
2023-05-22T18:07:38.291Z,7.20
2023-05-22T18:10:08.136Z,7.15
2023-05-22T18:12:36.630Z,7.07
2023-05-22T18:15:04.911Z,6.68
2023-05-22T18:17:32.447Z,6.82
2023-05-22T18:19:59.259Z,7.03
2023-05-22T18:22:25.764Z,7.03
2023-05-22T18:24:52.329Z,6.82
2023-05-22T18:27:18.900Z,8.02
2023-05-22T18:29:45.447Z,6.97
2023-05-22T18:32:13.572Z,7.03
2023-05-22T18:34:40.160Z,7.28
2023-05-22T18:37:06.700Z,7.10
2023-05-22T18:39:33.363Z,6.80
2023-05-22T18:41:59.910Z,7.00
2023-05-22T18:44:26.492Z,8.25
2023-05-22T18:46:53.094Z,7.88
2023-05-22T18:49:19.802Z,7.25
2023-05-22T18:51:46.336Z,7.80
2023-05-22T18:54:12.832Z,7.22
2023-05-22T18:56:39.458Z,7.28
2023-05-22T18:59:06.048Z,7.63
2023-05-22T19:01:33.215Z,6.95
2023-05-22T19:04:00.378Z,6.70
2023-05-22T19:06:27.158Z,8.18
2023-05-22T19:08:53.656Z,6.88
2023-05-22T19:11:20.187Z,6.97
2023-05-22T19:13:47.073Z,6.90
2023-05-22T19:16:13.962Z,6.18
2023-05-22T19:18:40.576Z,6.07
2023-05-22T19:21:10.171Z,3.92
2023-05-22T19:23:36.953Z,4.13
2023-05-22T19:26:03.609Z,3.50
2023-05-22T19:28:33.506Z,3.50
2023-05-22T19:31:02.963Z,3.65
2023-05-22T19:33:31.160Z,3.50
2023-05-22T19:35:58.996Z,3.58
2023-05-22T19:38:25.605Z,3.30
2023-05-22T19:40:52.206Z,3.30
2023-05-22T19:43:18.931Z,3.15
2023-05-22T19:45:46.017Z,3.20
2023-05-22T19:48:13.174Z,3.03
2023-05-22T19:50:40.165Z,2.72
2023-05-22T19:53:07.228Z,3.30
2023-05-22T19:55:33.751Z,3.83
2023-05-22T19:58:00.279Z,3.03
2023-05-22T20:00:29.263Z,3.28
2023-05-22T20:02:56.090Z,2.55
2023-05-22T20:05:22.740Z,3.13
2023-05-22T20:07:49.356Z,3.30
2023-05-22T20:10:16.415Z,3.08
2023-05-22T20:12:43.129Z,3.03
2023-05-22T20:15:10.642Z,2.90
2023-05-22T20:17:41.710Z,2.88
2023-05-22T20:20:09.783Z,2.90
2023-05-22T20:22:36.398Z,2.90
2023-05-22T20:25:05.115Z,3.03
2023-05-22T20:27:31.907Z,3.35
2023-05-22T20:30:00.073Z,3.40
2023-05-22T20:32:27.043Z,3.40
2023-05-22T20:34:55.320Z,3.30
2023-05-22T20:37:22.327Z,3.45
2023-05-22T20:39:50.075Z,3.78
2023-05-22T20:42:17.755Z,3.08
2023-05-22T20:44:44.571Z,2.80
2023-05-22T20:47:11.302Z,3.47
2023-05-22T20:49:38.580Z,3.33
2023-05-22T20:52:05.815Z,3.28
2023-05-22T20:54:34.634Z,3.28
2023-05-22T20:57:01.876Z,3.67
2023-05-22T20:59:29.088Z,3.53
2023-05-22T21:01:56.879Z,3.45
2023-05-22T21:04:23.930Z,2.97
2023-05-22T21:06:51.023Z,3.40
2023-05-22T21:09:17.694Z,3.70
2023-05-22T21:11:44.190Z,3.63
2023-05-22T21:14:10.701Z,3.42
2023-05-22T21:16:39.610Z,3.70
2023-05-22T21:19:07.261Z,3.63
2023-05-22T21:21:37.815Z,3.45
2023-05-22T21:24:04.549Z,3.70
2023-05-22T21:26:31.122Z,3.25
2023-05-22T21:28:57.791Z,3.65
2023-05-22T21:31:24.365Z,3.30
2023-05-22T21:33:50.961Z,3.30
2023-05-22T21:36:17.657Z,3.70
2023-05-22T21:38:44.637Z,3.80
2023-05-22T21:41:11.938Z,3.42
2023-05-22T21:43:38.833Z,3.65
2023-05-22T21:46:05.509Z,3.30
2023-05-22T21:48:32.056Z,3.80
2023-05-22T21:50:58.656Z,4.00
2023-05-22T21:53:25.223Z,4.40
2023-05-22T21:55:51.888Z,4.03
2023-05-22T21:58:18.371Z,4.30
2023-05-22T22:00:44.907Z,4.07
2023-05-22T22:03:12.129Z,4.05
2023-05-22T22:05:38.757Z,4.68
2023-05-22T22:08:05.894Z,4.70
2023-05-22T22:10:32.400Z,3.97
2023-05-22T22:12:58.986Z,3.75
2023-05-22T22:15:25.646Z,4.38
2023-05-22T22:17:52.575Z,3.97
2023-05-22T22:20:24.750Z,4.95
2023-05-22T22:22:57.174Z,4.70
2023-05-22T22:25:23.688Z,4.45
2023-05-22T22:27:50.608Z,4.10
2023-05-22T22:30:17.121Z,4.75
2023-05-22T22:32:43.724Z,4.75
2023-05-22T22:35:10.345Z,4.43
2023-05-22T22:37:37.595Z,4.60
2023-05-22T22:40:05.547Z,4.05
2023-05-22T22:42:34.918Z,4.70
2023-05-22T22:45:01.706Z,4.38
2023-05-22T22:47:28.334Z,4.60
2023-05-22T22:49:57.214Z,4.60
2023-05-22T22:52:26.724Z,4.40
2023-05-22T22:54:53.274Z,4.78
2023-05-22T22:57:19.821Z,4.57
2023-05-22T22:59:46.322Z,4.00
2023-05-22T23:02:12.856Z,5.30
2023-05-22T23:04:39.479Z,4.97
2023-05-22T23:07:06.154Z,4.55
2023-05-22T23:09:32.661Z,4.32
2023-05-22T23:11:59.242Z,4.63
2023-05-22T23:14:27.973Z,5.30
2023-05-22T23:19:20.937Z,4.15
2023-05-22T23:21:47.557Z,4.93
2023-05-22T23:24:14.184Z,3.92
2023-05-22T23:26:41.115Z,4.80
2023-05-22T23:29:08.233Z,4.95
2023-05-22T23:31:36.587Z,5.40
2023-05-22T23:34:03.247Z,5.25
2023-05-22T23:36:29.789Z,4.68
2023-05-22T23:38:56.339Z,4.32
2023-05-22T23:41:24.444Z,4.82
2023-05-22T23:43:51.254Z,4.97
2023-05-22T23:46:18.110Z,5.03
2023-05-22T23:48:44.684Z,4.82
2023-05-22T23:51:14.319Z,5.00
2023-05-22T23:53:41.917Z,4.97
2023-05-22T23:56:09.321Z,4.85
2023-05-22T23:58:37.185Z,2.85
